Time;durP1;ratioP1;P1;durP2;ratioP2;P2;SDS_P1;SDS_P2;PMS_P1;PMS_P2;Temp;Humidity;BMP_temperature;BMP_pressure;BME280_temperature;BME280_humidity;BME280_pressure;Samples;Min_cycle;Max_cycle;Signal;HPM_P1;HPM_P2
2021/07/22 00:02:24;;;;;;;52.20;26.05;;;18.80;99.90;;;;;;5013942;28;25055;-74
2021/07/22 00:04:50;;;;;;;54.58;28.02;;;18.80;99.90;;;;;;5030809;28;25147;-77
2021/07/22 00:07:15;;;;;;;56.42;27.70;;;18.70;99.90;;;;;;5023735;28;25106;-74
2021/07/22 00:09:41;;;;;;;57.92;28.92;;;18.70;99.90;;;;;;5044956;28;25067;-73
2021/07/22 00:12:13;;;;;;;53.72;28.55;;;18.70;99.90;;;;;;5034324;28;25106;-75
2021/07/22 00:14:41;;;;;;;58.58;28.73;;;18.60;99.90;;;;;;5031234;28;25106;-73
2021/07/22 00:17:07;;;;;;;62.00;28.67;;;18.60;99.90;;;;;;5032105;28;25099;-77
2021/07/22 00:19:34;;;;;;;54.90;27.52;;;18.50;99.90;;;;;;5029081;28;25167;-76
2021/07/22 00:22:00;;;;;;;59.00;28.83;;;18.50;99.90;;;;;;5032660;28;25063;-75
2021/07/22 00:24:26;;;;;;;59.13;28.98;;;18.50;99.90;;;;;;5030694;28;25082;-76
2021/07/22 00:26:52;;;;;;;57.30;29.42;;;18.50;99.90;;;;;;5012315;28;25073;-74
2021/07/22 00:29:19;;;;;;;55.60;28.13;;;18.40;99.90;;;;;;5030531;28;25055;-77
2021/07/22 00:31:46;;;;;;;64.70;29.63;;;18.40;99.90;;;;;;5031079;28;25069;-76
2021/07/22 00:34:12;;;;;;;60.22;30.02;;;18.40;99.90;;;;;;5029575;28;25070;-74
2021/07/22 00:36:37;;;;;;;61.08;28.98;;;18.30;99.90;;;;;;5026111;28;25094;-75
2021/07/22 00:39:03;;;;;;;60.78;30.13;;;18.40;99.90;;;;;;5002745;28;25125;-76
2021/07/22 00:41:29;;;;;;;53.30;29.25;;;18.30;99.90;;;;;;5008682;28;25075;-76
2021/07/22 00:43:55;;;;;;;55.38;28.38;;;18.40;99.90;;;;;;5024575;28;25070;-77
2021/07/22 00:46:21;;;;;;;59.67;29.48;;;18.50;99.90;;;;;;5021991;28;25066;-75
2021/07/22 00:48:47;;;;;;;59.05;29.98;;;18.50;99.90;;;;;;5029639;28;25162;-75
2021/07/22 00:51:13;;;;;;;65.53;29.67;;;18.40;99.90;;;;;;5026751;28;25051;-76
2021/07/22 00:53:40;;;;;;;62.53;29.40;;;18.30;99.90;;;;;;5018506;28;25074;-76
2021/07/22 00:56:06;;;;;;;60.20;29.80;;;18.30;99.90;;;;;;5029192;28;25062;-75
2021/07/22 00:58:32;;;;;;;56.85;28.65;;;18.30;99.90;;;;;;5028944;28;25057;-74
2021/07/22 01:00:59;;;;;;;60.63;30.83;;;18.30;99.90;;;;;;5031138;28;25148;-77
2021/07/22 01:03:25;;;;;;;59.38;29.08;;;18.30;99.90;;;;;;5032201;28;25132;-76
2021/07/22 01:05:51;;;;;;;54.83;29.23;;;18.30;99.90;;;;;;5024904;28;25052;-74
2021/07/22 01:08:16;;;;;;;61.20;30.42;;;18.40;99.90;;;;;;5039658;28;25068;-75
2021/07/22 01:10:42;;;;;;;57.72;30.55;;;18.40;99.90;;;;;;5043406;28;25075;-75
2021/07/22 01:13:08;;;;;;;60.65;30.08;;;18.30;99.90;;;;;;5049861;28;25082;-79
2021/07/22 01:15:37;;;;;;;62.88;29.98;;;18.20;99.90;;;;;;5047394;28;25076;-79
2021/07/22 01:18:03;;;;;;;57.60;28.77;;;18.10;99.90;;;;;;5041676;28;25139;-74
2021/07/22 01:20:30;;;;;;;58.78;29.60;;;18.10;99.90;;;;;;5031552;28;25073;-74
2021/07/22 01:22:57;;;;;;;62.22;30.05;;;18.10;99.90;;;;;;5032532;28;25154;-75
2021/07/22 01:25:25;;;;;;;58.17;29.88;;;18.00;99.90;;;;;;5029086;28;25059;-76
2021/07/22 01:27:51;;;;;;;56.13;28.75;;;18.00;99.90;;;;;;5018580;28;25123;-76
2021/07/22 01:30:18;;;;;;;54.03;26.92;;;17.80;99.90;;;;;;5028901;28;25079;-74
2021/07/22 01:32:44;;;;;;;55.42;27.55;;;17.80;99.90;;;;;;5026223;28;25061;-76
2021/07/22 01:35:11;;;;;;;50.55;26.23;;;17.80;99.90;;;;;;5027402;28;25131;-75
2021/07/22 01:37:41;;;;;;;56.05;26.83;;;17.80;99.90;;;;;;5031703;28;25105;-74
2021/07/22 01:40:08;;;;;;;48.00;25.63;;;17.70;99.90;;;;;;5026747;28;25090;-74
2021/07/22 01:42:34;;;;;;;52.83;27.85;;;17.80;99.90;;;;;;5031990;28;25055;-73
2021/07/22 01:45:00;;;;;;;51.30;25.65;;;17.70;99.90;;;;;;5020948;28;25071;-75
2021/07/22 01:47:25;;;;;;;48.30;25.02;;;17.80;99.90;;;;;;5032863;28;25076;-75
2021/07/22 01:49:51;;;;;;;53.78;25.67;;;17.70;99.90;;;;;;5033769;28;25082;-76
2021/07/22 01:52:18;;;;;;;49.08;25.70;;;17.60;99.90;;;;;;5031096;28;25060;-76
2021/07/22 01:54:44;;;;;;;44.95;25.27;;;17.70;99.90;;;;;;5032600;28;25045;-75
2021/07/22 01:57:09;;;;;;;56.00;26.38;;;17.60;99.90;;;;;;5013209;28;25082;-77
2021/07/22 01:59:35;;;;;;;47.20;23.63;;;17.50;99.90;;;;;;5029328;28;25124;-75
2021/07/22 02:02:05;;;;;;;46.65;23.67;;;17.60;99.90;;;;;;5029546;28;25073;-74
2021/07/22 02:04:32;;;;;;;43.33;23.58;;;17.50;99.90;;;;;;5029575;28;25073;-74
2021/07/22 02:06:58;;;;;;;43.95;23.10;;;17.60;99.90;;;;;;5028917;28;25070;-76
2021/07/22 02:09:24;;;;;;;50.55;25.42;;;17.60;99.90;;;;;;5031307;28;25165;-74
2021/07/22 02:11:51;;;;;;;45.28;23.27;;;17.40;99.90;;;;;;5031213;28;25049;-74
2021/07/22 02:14:17;;;;;;;47.97;23.90;;;17.40;99.90;;;;;;5032106;28;25086;-77
2021/07/22 02:16:42;;;;;;;45.88;22.85;;;17.40;99.90;;;;;;5032685;28;25120;-75
2021/07/22 02:19:08;;;;;;;47.58;23.17;;;17.50;99.90;;;;;;5030262;28;25079;-74
2021/07/22 02:21:36;;;;;;;46.70;23.33;;;17.50;99.90;;;;;;5028991;28;25051;-74
2021/07/22 02:24:07;;;;;;;47.90;24.10;;;17.40;99.90;;;;;;5023314;28;25162;-75
2021/07/22 02:26:33;;;;;;;44.80;22.98;;;17.30;99.90;;;;;;5030474;28;25088;-76
2021/07/22 02:28:59;;;;;;;42.90;23.17;;;17.30;99.90;;;;;;5031726;28;25159;-73
2021/07/22 02:31:27;;;;;;;43.30;23.08;;;17.20;99.90;;;;;;5033829;28;25071;-73
2021/07/22 02:33:54;;;;;;;41.33;23.55;;;17.30;99.90;;;;;;5028080;28;25162;-75
2021/07/22 02:36:19;;;;;;;39.95;23.08;;;17.40;99.90;;;;;;5020202;28;25082;-74
2021/07/22 02:38:46;;;;;;;45.60;21.75;;;17.30;99.90;;;;;;5030076;28;25101;-76
2021/07/22 02:41:12;;;;;;;43.13;22.92;;;17.30;99.90;;;;;;5037002;28;25157;-73
2021/07/22 02:43:39;;;;;;;44.50;23.20;;;17.30;99.90;;;;;;5031436;28;25533;-75
2021/07/22 02:46:09;;;;;;;43.30;23.38;;;17.20;99.90;;;;;;5023190;28;25066;-73
2021/07/22 02:48:35;;;;;;;44.85;23.25;;;17.20;99.90;;;;;;5034478;28;25073;-74
2021/07/22 02:51:01;;;;;;;45.13;22.88;;;17.30;99.90;;;;;;5044017;28;25069;-80
2021/07/22 02:53:29;;;;;;;49.80;23.73;;;17.20;99.90;;;;;;5067173;28;25145;-78
2021/07/22 02:55:59;;;;;;;38.38;22.15;;;17.10;99.90;;;;;;5041810;28;25058;-78
2021/07/22 02:58:25;;;;;;;44.35;23.33;;;17.20;99.90;;;;;;5041812;28;25062;-74
2021/07/22 03:00:51;;;;;;;41.45;23.33;;;17.10;99.90;;;;;;5025162;28;25114;-73
2021/07/22 03:03:17;;;;;;;45.67;25.08;;;17.10;99.90;;;;;;5025517;28;25059;-75
2021/07/22 03:05:44;;;;;;;46.53;24.55;;;17.10;99.90;;;;;;5031716;28;25160;-74
2021/07/22 03:08:10;;;;;;;43.42;22.17;;;17.10;99.90;;;;;;5010742;28;25096;-74
2021/07/22 03:10:36;;;;;;;48.03;25.00;;;17.10;99.90;;;;;;5031286;28;25095;-74
2021/07/22 03:13:03;;;;;;;46.88;25.58;;;17.10;99.90;;;;;;5031187;28;25081;-75
2021/07/22 03:15:29;;;;;;;48.95;24.90;;;17.00;99.90;;;;;;5012461;28;25090;-74
2021/07/22 03:17:55;;;;;;;43.28;25.08;;;17.00;99.90;;;;;;5020692;28;25055;-74
2021/07/22 03:20:21;;;;;;;51.83;26.45;;;16.90;99.90;;;;;;5014928;28;25081;-73
2021/07/22 03:22:46;;;;;;;50.88;26.17;;;16.90;99.90;;;;;;5030236;28;25065;-77
2021/07/22 03:25:12;;;;;;;53.58;25.85;;;16.90;99.90;;;;;;5011847;28;25112;-75
2021/07/22 03:27:38;;;;;;;45.83;25.23;;;16.90;99.90;;;;;;5029968;28;25106;-74
2021/07/22 03:30:04;;;;;;;46.85;25.73;;;16.90;99.90;;;;;;5029451;28;25085;-75
2021/07/22 03:32:30;;;;;;;48.22;25.75;;;17.00;99.90;;;;;;5041450;28;25136;-75
2021/07/22 03:34:55;;;;;;;54.25;27.23;;;17.00;99.90;;;;;;5017684;28;25152;-74
2021/07/22 03:37:21;;;;;;;47.67;26.73;;;16.80;99.90;;;;;;5033065;28;25109;-75
2021/07/22 03:39:46;;;;;;;46.60;26.65;;;16.90;99.90;;;;;;5022947;28;25084;-73
2021/07/22 03:42:12;;;;;;;52.42;26.70;;;16.90;99.90;;;;;;5030166;28;25119;-73
2021/07/22 03:44:38;;;;;;;55.70;27.88;;;16.90;99.90;;;;;;5032496;28;25115;-74
2021/07/22 03:47:04;;;;;;;58.65;28.02;;;16.80;99.90;;;;;;5031870;28;25115;-77
2021/07/22 03:49:30;;;;;;;55.67;26.58;;;16.80;99.90;;;;;;5012138;28;25075;-75
2021/07/22 03:51:57;;;;;;;51.13;27.10;;;16.70;99.90;;;;;;5030336;28;25072;-74
2021/07/22 03:54:22;;;;;;;58.05;28.45;;;16.70;99.90;;;;;;5021538;28;25064;-73
2021/07/22 03:56:48;;;;;;;54.28;27.27;;;16.60;99.90;;;;;;5012598;28;25076;-72
2021/07/22 03:59:15;;;;;;;51.17;27.80;;;16.70;99.90;;;;;;5026955;28;25107;-75
2021/07/22 04:01:41;;;;;;;49.83;26.92;;;16.60;99.90;;;;;;5032073;28;25073;-75
2021/07/22 04:04:12;;;;;;;47.55;25.95;;;16.70;99.90;;;;;;5032550;28;25073;-74
2021/07/22 04:06:40;;;;;;;49.03;27.30;;;16.70;99.90;;;;;;5033119;28;25061;-80
2021/07/22 04:09:06;;;;;;;49.53;26.30;;;16.70;99.90;;;;;;5029403;28;25085;-76
2021/07/22 04:11:34;;;;;;;50.70;27.17;;;16.60;99.90;;;;;;5035750;28;25093;-74
2021/07/22 04:14:00;;;;;;;52.83;27.50;;;16.60;99.90;;;;;;5025937;28;25127;-76
2021/07/22 04:16:26;;;;;;;53.58;27.45;;;16.60;99.90;;;;;;5028856;28;25061;-75
2021/07/22 04:18:51;;;;;;;53.20;27.23;;;16.60;99.90;;;;;;5040149;28;25104;-74
2021/07/22 04:21:17;;;;;;;48.30;27.02;;;16.50;99.90;;;;;;5035369;28;25064;-74
2021/07/22 04:23:43;;;;;;;46.78;26.13;;;16.60;99.90;;;;;;5029467;28;25102;-76
2021/07/22 04:26:17;;;;;;;54.78;26.52;;;16.60;99.90;;;;;;5019050;28;25097;-75
2021/07/22 04:28:44;;;;;;;45.75;26.70;;;16.60;99.90;;;;;;5020591;28;25133;-76
2021/07/22 04:31:15;;;;;;;51.00;26.15;;;16.50;99.90;;;;;;5028408;28;25123;-75
2021/07/22 04:33:41;;;;;;;46.38;25.55;;;16.50;99.90;;;;;;5036521;28;25073;-75
2021/07/22 04:36:07;;;;;;;45.60;25.52;;;16.50;99.90;;;;;;5039317;28;25050;-73
2021/07/22 04:38:37;;;;;;;47.25;25.30;;;16.50;99.90;;;;;;5020498;28;25051;-75
2021/07/22 04:41:06;;;;;;;49.03;25.95;;;16.60;99.90;;;;;;5039780;28;25057;-75
2021/07/22 04:43:32;;;;;;;45.33;25.15;;;16.60;99.90;;;;;;5038677;28;25173;-74
2021/07/22 04:46:05;;;;;;;43.75;24.65;;;16.60;99.90;;;;;;5049491;28;25082;-75
2021/07/22 04:48:31;;;;;;;49.85;23.85;;;16.60;99.90;;;;;;5044279;28;25070;-74
2021/07/22 04:51:08;;;;;;;46.45;24.80;;;16.70;99.90;;;;;;5044374;28;25132;-76
2021/07/22 04:53:36;;;;;;;43.78;25.33;;;16.70;99.90;;;;;;5026117;28;25154;-75
2021/07/22 04:56:02;;;;;;;44.50;25.08;;;16.60;99.90;;;;;;5047134;28;25084;-75
2021/07/22 04:58:29;;;;;;;50.70;24.55;;;16.70;99.90;;;;;;5048098;28;25076;-75
2021/07/22 05:00:55;;;;;;;41.15;24.13;;;16.60;99.90;;;;;;5029918;28;25068;-73
2021/07/22 05:03:20;;;;;;;46.17;24.17;;;16.70;99.90;;;;;;5033690;28;25076;-74
2021/07/22 05:05:46;;;;;;;43.70;23.20;;;16.60;99.90;;;;;;5032776;28;25060;-74
2021/07/22 05:08:12;;;;;;;40.42;23.02;;;16.70;99.90;;;;;;5032216;28;25069;-75
2021/07/22 05:10:37;;;;;;;37.10;23.40;;;16.70;99.90;;;;;;5038893;28;25071;-77
2021/07/22 05:13:06;;;;;;;38.97;21.80;;;16.70;99.90;;;;;;5010512;28;25073;-73
2021/07/22 05:15:32;;;;;;;43.95;23.15;;;16.80;99.90;;;;;;5037173;28;25151;-71
2021/07/22 05:18:00;;;;;;;45.13;22.00;;;16.80;99.90;;;;;;5015089;28;25075;-74
2021/07/22 05:20:25;;;;;;;37.50;21.35;;;16.80;99.90;;;;;;5026923;28;25064;-75
2021/07/22 05:22:51;;;;;;;35.10;20.88;;;16.70;99.90;;;;;;5023466;28;25104;-74
2021/07/22 05:25:17;;;;;;;41.03;22.05;;;16.70;99.90;;;;;;5024920;28;25120;-73
2021/07/22 05:27:42;;;;;;;37.58;21.20;;;16.80;99.90;;;;;;5017620;28;25058;-72
2021/07/22 05:30:08;;;;;;;36.25;19.95;;;16.80;99.90;;;;;;5024591;28;25175;-70
2021/07/22 05:32:34;;;;;;;35.38;20.23;;;16.80;99.90;;;;;;5020971;28;25051;-74
2021/07/22 05:35:00;;;;;;;37.42;19.52;;;16.90;99.90;;;;;;5024098;28;25125;-74
2021/07/22 05:37:26;;;;;;;33.20;20.05;;;16.90;99.90;;;;;;5028064;28;25095;-71
2021/07/22 05:39:51;;;;;;;34.25;19.63;;;16.90;99.90;;;;;;5027540;28;25054;-71
2021/07/22 05:42:17;;;;;;;30.58;19.52;;;16.90;99.90;;;;;;5005323;28;25054;-72
2021/07/22 05:44:43;;;;;;;33.20;18.95;;;16.90;99.90;;;;;;5019679;28;25059;-72
2021/07/22 05:47:08;;;;;;;28.40;19.23;;;17.00;99.90;;;;;;5024747;28;25132;-74
2021/07/22 05:49:34;;;;;;;29.15;18.65;;;17.10;99.90;;;;;;5028900;28;25068;-74
2021/07/22 05:52:06;;;;;;;31.17;18.70;;;17.00;99.90;;;;;;5031216;28;25089;-72
2021/07/22 05:54:31;;;;;;;32.85;19.85;;;17.10;99.90;;;;;;5026552;28;25163;-72
2021/07/22 05:56:58;;;;;;;27.95;17.63;;;17.00;99.90;;;;;;5039919;28;25070;-76
2021/07/22 05:59:26;;;;;;;31.10;18.45;;;17.10;99.90;;;;;;5047048;28;25067;-71
2021/07/22 06:01:51;;;;;;;32.58;17.92;;;17.10;99.90;;;;;;5053503;28;25069;-74
2021/07/22 06:04:17;;;;;;;29.10;18.45;;;17.10;99.90;;;;;;5045502;28;25048;-72
2021/07/22 06:06:43;;;;;;;38.03;18.20;;;17.30;99.90;;;;;;5044548;28;25127;-74
2021/07/22 06:09:09;;;;;;;33.85;18.40;;;17.50;99.90;;;;;;5030518;28;25079;-77
2021/07/22 06:11:35;;;;;;;31.20;17.52;;;17.60;99.90;;;;;;5026277;28;25054;-72
2021/07/22 06:14:00;;;;;;;27.25;17.67;;;17.60;99.90;;;;;;5033834;28;25076;-75
2021/07/22 06:16:27;;;;;;;33.85;17.77;;;17.60;99.90;;;;;;5011285;28;25037;-72
2021/07/22 06:18:53;;;;;;;29.73;17.15;;;17.50;99.90;;;;;;5030508;28;25063;-72
2021/07/22 06:21:21;;;;;;;30.77;17.15;;;17.60;99.90;;;;;;5032460;28;25074;-73
2021/07/22 06:23:47;;;;;;;27.40;17.60;;;17.50;99.90;;;;;;5004860;28;25069;-74
2021/07/22 06:26:13;;;;;;;34.97;18.48;;;17.60;99.90;;;;;;5026139;28;25053;-74
2021/07/22 06:28:38;;;;;;;27.45;17.75;;;17.60;99.90;;;;;;5018326;28;25067;-74
2021/07/22 06:31:04;;;;;;;33.20;18.70;;;17.60;99.90;;;;;;5011445;28;25081;-73
2021/07/22 06:33:30;;;;;;;27.77;18.17;;;17.60;99.90;;;;;;5008460;28;25051;-72
2021/07/22 06:35:55;;;;;;;26.52;17.20;;;17.70;99.90;;;;;;5017363;28;25169;-75
2021/07/22 06:38:21;;;;;;;27.23;17.38;;;17.80;99.90;;;;;;5021121;28;25088;-72
2021/07/22 06:40:46;;;;;;;30.60;18.23;;;18.00;99.90;;;;;;5033464;28;25103;-72
2021/07/22 06:43:16;;;;;;;30.52;18.02;;;18.20;99.90;;;;;;5044303;28;25054;-73
2021/07/22 06:45:42;;;;;;;29.02;19.20;;;18.50;99.90;;;;;;5050296;28;25075;-72
2021/07/22 06:48:08;;;;;;;30.13;19.02;;;18.40;99.90;;;;;;5020792;28;25126;-74
2021/07/22 06:50:35;;;;;;;32.80;19.85;;;18.30;99.90;;;;;;5014580;28;25073;-73
2021/07/22 06:53:07;;;;;;;34.67;19.05;;;18.00;99.90;;;;;;5032489;28;25097;-72
2021/07/22 06:55:33;;;;;;;35.92;20.42;;;18.10;99.90;;;;;;5021140;28;25130;-72
2021/07/22 06:58:06;;;;;;;31.92;18.50;;;18.20;99.90;;;;;;5016488;28;25104;-73
2021/07/22 07:00:32;;;;;;;29.05;16.80;;;18.40;99.90;;;;;;5033290;28;25094;-73
2021/07/22 07:03:02;;;;;;;35.10;18.35;;;18.50;99.90;;;;;;5033157;28;25059;-73
2021/07/22 07:05:27;;;;;;;27.95;18.88;;;18.60;99.90;;;;;;5024376;28;25115;-71
2021/07/22 07:07:54;;;;;;;26.25;18.70;;;18.50;99.90;;;;;;5017278;28;25079;-73
2021/07/22 07:10:20;;;;;;;29.65;17.45;;;18.50;99.90;;;;;;5012515;28;25063;-74
2021/07/22 07:12:45;;;;;;;27.02;17.88;;;18.80;99.90;;;;;;5027580;28;25076;-74
2021/07/22 07:15:11;;;;;;;23.90;16.40;;;18.70;99.90;;;;;;5032436;28;25139;-74
2021/07/22 07:17:36;;;;;;;23.33;16.52;;;18.80;99.90;;;;;;5033147;28;25163;-72
2021/07/22 07:20:02;;;;;;;28.85;18.83;;;19.00;99.90;;;;;;5035904;28;25069;-74
2021/07/22 07:22:29;;;;;;;32.95;18.77;;;18.80;99.90;;;;;;5025840;28;25097;-73
2021/07/22 07:24:54;;;;;;;33.28;17.70;;;18.80;99.90;;;;;;5017189;28;25096;-73
2021/07/22 07:27:20;;;;;;;26.25;17.15;;;18.70;99.90;;;;;;5009367;28;25096;-74
2021/07/22 07:29:45;;;;;;;23.48;16.45;;;19.00;99.90;;;;;;5023926;28;25067;-73
2021/07/22 07:32:11;;;;;;;29.67;18.38;;;19.10;99.90;;;;;;5024895;28;25091;-72
2021/07/22 07:34:37;;;;;;;29.70;19.90;;;18.90;99.90;;;;;;5046289;28;25087;-76
2021/07/22 07:37:04;;;;;;;30.80;18.98;;;18.70;99.90;;;;;;5042474;28;25046;-73
2021/07/22 07:39:29;;;;;;;26.35;18.67;;;18.80;99.90;;;;;;5018507;28;25096;-72
2021/07/22 07:41:55;;;;;;;26.02;16.95;;;19.00;99.90;;;;;;5031246;28;25139;-73
2021/07/22 07:44:21;;;;;;;28.02;17.38;;;19.30;99.90;;;;;;5048029;28;25161;-74
2021/07/22 07:46:46;;;;;;;25.42;18.70;;;19.40;99.90;;;;;;5022790;28;25107;-75
2021/07/22 07:49:12;;;;;;;29.20;17.73;;;19.30;99.90;;;;;;5045414;28;25103;-72
2021/07/22 07:51:37;;;;;;;29.30;17.98;;;19.30;99.90;;;;;;5042484;28;25057;-74
2021/07/22 07:54:03;;;;;;;28.92;18.77;;;19.30;99.90;;;;;;5046163;28;25092;-74
2021/07/22 07:56:29;;;;;;;25.83;18.75;;;19.40;99.90;;;;;;5025316;28;25054;-74
2021/07/22 07:58:54;;;;;;;25.83;15.70;;;19.40;99.90;;;;;;5051276;28;25081;-72
2021/07/22 08:01:25;;;;;;;31.67;18.27;;;19.70;99.90;;;;;;5044822;28;25092;-72
2021/07/22 08:03:51;;;;;;;27.30;17.10;;;19.50;99.90;;;;;;5031302;28;25077;-74
2021/07/22 08:06:17;;;;;;;26.42;18.52;;;19.60;99.90;;;;;;5041526;28;25079;-72
2021/07/22 08:08:42;;;;;;;23.48;17.52;;;19.40;99.90;;;;;;5038550;28;25062;-72
2021/07/22 08:11:08;;;;;;;31.33;16.45;;;19.50;99.90;;;;;;5048867;28;25113;-72
2021/07/22 08:13:33;;;;;;;23.98;16.17;;;19.50;99.90;;;;;;5050367;28;25073;-74
2021/07/22 08:16:00;;;;;;;26.10;15.45;;;19.30;99.90;;;;;;5049985;28;25096;-73
2021/07/22 08:18:25;;;;;;;30.25;19.17;;;19.40;99.90;;;;;;5044414;28;25078;-77
2021/07/22 08:20:51;;;;;;;23.65;16.52;;;19.50;99.90;;;;;;5040810;28;25071;-73
2021/07/22 08:23:16;;;;;;;26.25;15.88;;;19.60;99.90;;;;;;5028552;28;25177;-73
2021/07/22 08:25:42;;;;;;;26.38;17.10;;;19.70;99.90;;;;;;5012989;28;25068;-73
2021/07/22 08:28:11;;;;;;;26.55;14.75;;;19.90;99.90;;;;;;5020817;28;25065;-76
2021/07/22 08:30:38;;;;;;;19.88;13.60;;;20.00;99.90;;;;;;5023098;28;25115;-74
2021/07/22 08:33:05;;;;;;;21.55;13.30;;;20.10;99.90;;;;;;5022557;28;25082;-72
2021/07/22 08:35:31;;;;;;;21.42;13.07;;;20.20;99.90;;;;;;5030686;28;25100;-73
2021/07/22 08:37:57;;;;;;;20.38;11.02;;;20.20;99.90;;;;;;5017231;28;25045;-77
2021/07/22 08:40:25;;;;;;;18.38;11.75;;;20.30;99.90;;;;;;5059894;28;25053;-76
2021/07/22 08:42:54;;;;;;;18.83;9.50;;;20.40;99.90;;;;;;5057758;28;25075;-74
2021/07/22 08:45:20;;;;;;;18.70;10.93;;;20.60;99.90;;;;;;5052258;28;25054;-75
2021/07/22 08:47:46;;;;;;;19.02;10.80;;;20.60;99.90;;;;;;5049425;28;25112;-75
2021/07/22 08:50:14;;;;;;;18.23;12.27;;;20.60;99.90;;;;;;5044845;28;25062;-74
2021/07/22 08:52:42;;;;;;;26.15;12.30;;;20.80;99.90;;;;;;5034374;28;25152;-75
2021/07/22 08:55:08;;;;;;;20.88;11.93;;;20.60;99.90;;;;;;5015218;28;25078;-74
2021/07/22 08:57:38;;;;;;;15.82;10.65;;;20.50;99.90;;;;;;5035155;28;25112;-73
2021/07/22 09:00:05;;;;;;;22.13;10.68;;;20.50;99.90;;;;;;5026018;28;25056;-72
2021/07/22 09:02:33;;;;;;;14.73;10.10;;;20.20;99.90;;;;;;5033883;28;25057;-76
2021/07/22 09:05:03;;;;;;;14.98;10.63;;;20.30;99.90;;;;;;5053155;28;25067;-75
2021/07/22 09:07:30;;;;;;;15.00;10.88;;;20.30;99.90;;;;;;5056160;28;25098;-77
2021/07/22 09:10:05;;;;;;;18.38;10.77;;;20.20;99.90;;;;;;5057452;28;25070;-77
2021/07/22 09:12:49;;;;;;;24.48;11.35;;;20.30;99.90;;;;;;5037663;28;25086;-78
2021/07/22 09:15:25;;;;;;;12.70;8.70;;;20.10;99.90;;;;;;5052863;28;25057;-78
2021/07/22 09:17:51;;;;;;;20.23;9.85;;;20.20;99.90;;;;;;5056703;28;25056;-77
2021/07/22 09:20:32;;;;;;;18.15;9.88;;;20.20;99.90;;;;;;5048599;28;25097;-74
2021/07/22 09:23:00;;;;;;;46.50;11.25;;;20.30;99.90;;;;;;5020955;28;25068;-73
2021/07/22 09:25:40;;;;;;;16.17;11.07;;;20.10;99.90;;;;;;5024473;28;25048;-74
2021/07/22 09:28:06;;;;;;;14.18;10.75;;;20.30;99.90;;;;;;5036689;28;25105;-73
2021/07/22 09:30:34;;;;;;;16.45;10.38;;;20.50;99.90;;;;;;5036034;28;25071;-75
2021/07/22 09:33:00;;;;;;;16.50;9.25;;;20.60;99.90;;;;;;5041383;28;25124;-75
2021/07/22 09:35:27;;;;;;;15.88;10.02;;;20.50;99.90;;;;;;5048089;28;25088;-76
2021/07/22 09:37:54;;;;;;;11.80;6.80;;;20.80;99.90;;;;;;5037724;28;25063;-74
2021/07/22 09:40:25;;;;;;;12.57;7.43;;;20.90;99.90;;;;;;5051109;28;25063;-79
2021/07/22 09:42:55;;;;;;;14.73;9.60;;;20.90;99.90;;;;;;5046922;28;25066;-74
2021/07/22 09:45:27;;;;;;;16.90;9.40;;;21.00;99.90;;;;;;5064482;28;25056;-76
2021/07/22 09:47:54;;;;;;;18.27;9.13;;;21.00;99.90;;;;;;5059998;28;25061;-74
2021/07/22 09:50:22;;;;;;;12.20;8.60;;;20.90;99.90;;;;;;5065744;28;25045;-74
2021/07/22 09:53:27;;;;;;;14.77;8.55;;;21.20;99.90;;;;;;5063402;28;25099;-74
2021/07/22 09:55:56;;;;;;;11.73;7.80;;;21.10;99.90;;;;;;4983322;28;25091;-78
2021/07/22 09:58:24;;;;;;;11.93;8.07;;;21.00;99.90;;;;;;5043085;28;25081;-76
2021/07/22 10:00:51;;;;;;;11.55;8.15;;;21.00;99.90;;;;;;5067750;28;25083;-76
2021/07/22 10:03:19;;;;;;;12.60;8.38;;;21.30;99.90;;;;;;5069866;28;25124;-78
2021/07/22 10:05:48;;;;;;;15.32;9.38;;;21.30;99.90;;;;;;5054953;28;25076;-78
2021/07/22 10:08:23;;;;;;;15.63;9.60;;;21.40;99.90;;;;;;5061218;28;25072;-76
2021/07/22 10:10:53;;;;;;;14.10;9.55;;;21.20;99.90;;;;;;5060420;28;25093;-77
2021/07/22 10:13:29;;;;;;;12.02;8.57;;;21.20;99.90;;;;;;5057411;28;25089;-73
2021/07/22 10:16:00;;;;;;;17.35;8.95;;;21.00;99.90;;;;;;5056508;28;25072;-76
2021/07/22 10:18:30;;;;;;;14.57;8.85;;;20.90;99.90;;;;;;5053251;28;25093;-74
2021/07/22 10:20:59;;;;;;;12.23;8.10;;;20.70;99.90;;;;;;5055905;28;25147;-75
2021/07/22 10:23:25;;;;;;;14.07;8.15;;;21.00;99.90;;;;;;5053749;28;25065;-75
2021/07/22 10:25:52;;;;;;;8.88;6.82;;;21.10;99.90;;;;;;5034201;28;25072;-76
2021/07/22 10:28:18;;;;;;;12.63;6.85;;;21.20;99.90;;;;;;5023034;28;25058;-76
2021/07/22 10:30:45;;;;;;;11.45;5.78;;;21.60;99.90;;;;;;5036690;28;25163;-75
2021/07/22 10:33:12;;;;;;;9.43;6.25;;;22.10;99.90;;;;;;5053543;28;25096;-77
2021/07/22 10:35:38;;;;;;;11.30;6.47;;;22.40;99.90;;;;;;5035349;28;25140;-77
2021/07/22 10:38:14;;;;;;;10.13;7.60;;;22.30;99.90;;;;;;5055113;28;25086;-77
2021/07/22 10:41:01;;;;;;;11.18;8.05;;;21.90;99.90;;;;;;5049466;28;25063;-76
2021/07/22 10:43:36;;;;;;;11.00;8.40;;;21.60;99.90;;;;;;5031684;28;25049;-74
2021/07/22 10:46:07;;;;;;;12.95;8.68;;;21.50;99.90;;;;;;5051771;28;25151;-77
2021/07/22 10:48:33;;;;;;;10.27;7.70;;;21.20;99.90;;;;;;5046366;28;25081;-75
2021/07/22 10:51:00;;;;;;;10.23;7.68;;;21.30;99.90;;;;;;5034761;28;25074;-78
2021/07/22 10:53:39;;;;;;;12.88;8.77;;;21.10;99.90;;;;;;5057591;28;25064;-77
2021/07/22 10:56:09;;;;;;;10.50;7.45;;;21.30;99.90;;;;;;5053724;28;25128;-74
2021/07/22 10:58:35;;;;;;;10.45;7.47;;;21.40;99.90;;;;;;5059916;28;25118;-76
2021/07/22 11:01:05;;;;;;;10.68;8.00;;;21.60;99.90;;;;;;5058241;28;25091;-75
2021/07/22 11:03:36;;;;;;;13.20;7.10;;;21.70;99.90;;;;;;5052797;28;25068;-74
2021/07/22 11:06:10;;;;;;;16.30;8.57;;;21.90;99.90;;;;;;5049290;28;25070;-77
2021/07/22 11:08:37;;;;;;;10.43;8.20;;;22.10;99.90;;;;;;5053605;28;25082;-74
2021/07/22 11:11:07;;;;;;;13.73;8.38;;;21.90;99.90;;;;;;5051728;28;25063;-73
2021/07/22 11:13:36;;;;;;;15.55;9.43;;;22.20;99.90;;;;;;5040605;28;25056;-74
2021/07/22 11:16:05;;;;;;;14.93;9.15;;;22.20;99.90;;;;;;5051288;28;25062;-77
2021/07/22 11:18:43;;;;;;;13.25;8.10;;;21.90;99.90;;;;;;5045204;28;25066;-74
2021/07/22 11:21:15;;;;;;;11.73;7.63;;;21.90;99.90;;;;;;5033452;28;25056;-74
2021/07/22 11:23:41;;;;;;;;;;;21.90;99.90;;;;;;5049939;28;25118;-75
2021/07/22 11:26:06;;;;;;;10.60;8.25;;;21.90;99.90;;;;;;5034209;28;24055;-76
2021/07/22 11:28:32;;;;;;;13.65;8.52;;;21.80;99.90;;;;;;5032902;28;25096;-76
2021/07/22 11:30:59;;;;;;;12.65;7.47;;;21.90;99.90;;;;;;5040325;28;25174;-77
2021/07/22 11:33:28;;;;;;;12.10;7.60;;;22.00;99.90;;;;;;5032288;28;25131;-76
2021/07/22 11:35:59;;;;;;;11.35;7.63;;;22.20;99.90;;;;;;5036579;28;25080;-76
2021/07/22 11:38:25;;;;;;;11.40;7.72;;;22.10;99.90;;;;;;5026182;28;25142;-76
2021/07/22 11:40:52;;;;;;;17.67;7.65;;;22.20;99.90;;;;;;5030988;28;25107;-78
2021/07/22 11:43:54;;;;;;;11.82;7.68;;;22.40;99.90;;;;;;5015799;28;25065;-78
2021/07/22 11:46:43;;;;;;;13.57;6.47;;;22.40;99.90;;;;;;5039211;28;25151;-77
2021/07/22 11:49:17;;;;;;;12.05;8.20;;;22.30;99.90;;;;;;5053111;28;25139;-78
2021/07/22 11:51:48;;;;;;;9.85;7.30;;;22.30;99.90;;;;;;5045779;28;25073;-77
2021/07/22 11:54:17;;;;;;;10.53;6.73;;;22.30;99.90;;;;;;5048843;28;25056;-75
2021/07/22 11:56:44;;;;;;;9.30;6.68;;;22.40;99.90;;;;;;5023593;28;25123;-77
2021/07/22 11:59:11;;;;;;;9.60;6.82;;;22.70;99.90;;;;;;5038914;28;25062;-75
2021/07/22 12:01:48;;;;;;;14.18;6.35;;;22.60;99.90;;;;;;5021742;28;25064;-77
2021/07/22 12:04:23;;;;;;;7.03;4.78;;;22.80;99.90;;;;;;5040003;28;25060;-79
2021/07/22 12:06:51;;;;;;;13.57;6.50;;;22.70;99.90;;;;;;5046375;28;25046;-76
2021/07/22 12:09:16;;;;;;;7.25;5.07;;;22.40;99.90;;;;;;5021962;28;25052;-78
2021/07/22 12:12:00;;;;;;;9.32;5.55;;;22.50;99.90;;;;;;5031746;28;25146;-77
2021/07/22 12:14:37;;;;;;;12.13;6.97;;;22.70;99.90;;;;;;5033936;28;25074;-74
2021/07/22 12:17:18;;;;;;;11.38;6.07;;;22.60;99.90;;;;;;5019908;28;25056;-75
2021/07/22 12:19:50;;;;;;;7.22;5.40;;;22.80;99.90;;;;;;5072205;28;25075;-77
2021/07/22 12:22:23;;;;;;;17.58;5.53;;;23.10;99.90;;;;;;5060594;28;25060;-78
2021/07/22 12:24:56;;;;;;;10.02;5.43;;;23.20;99.90;;;;;;5022149;28;25118;-77
2021/07/22 12:27:34;;;;;;;10.25;5.57;;;23.40;99.90;;;;;;5033163;28;25077;-77
2021/07/22 12:30:03;;;;;;;6.20;4.72;;;23.20;99.90;;;;;;5046442;28;25056;-77
2021/07/22 12:32:29;;;;;;;6.55;4.57;;;23.50;99.90;;;;;;5054978;28;25067;-80
2021/07/22 12:34:59;;;;;;;7.88;4.88;;;23.70;99.90;;;;;;5029696;28;25086;-77